sensor_id;sensor_type;location;lat;lon;timestamp;P1;durP1;ratioP1;P2;durP2;ratioP2
38653;SDS011;24413;52.450;20.706;2022-11-21T00:01:22;168.73;;;84.87;;
38653;SDS011;24413;52.450;20.706;2022-11-21T00:03:48;144.38;;;73.13;;
38653;SDS011;24413;52.450;20.706;2022-11-21T00:06:13;138.98;;;71.75;;
38653;SDS011;24413;52.450;20.706;2022-11-21T00:08:39;134.68;;;70.97;;
38653;SDS011;24413;52.450;20.706;2022-11-21T00:11:04;136.65;;;68.65;;
38653;SDS011;24413;52.450;20.706;2022-11-21T00:13:29;138.40;;;69.10;;
38653;SDS011;24413;52.450;20.706;2022-11-21T00:15:54;126.97;;;63.57;;
38653;SDS011;24413;52.450;20.706;2022-11-21T00:18:20;119.25;;;60.83;;
38653;SDS011;24413;52.450;20.706;2022-11-21T00:20:45;140.13;;;66.47;;
38653;SDS011;24413;52.450;20.706;2022-11-21T00:23:10;129.97;;;62.83;;
38653;SDS011;24413;52.450;20.706;2022-11-21T00:25:36;129.88;;;62.85;;
38653;SDS011;24413;52.450;20.706;2022-11-21T00:28:01;135.63;;;62.80;;
38653;SDS011;24413;52.450;20.706;2022-11-21T00:30:27;129.80;;;58.22;;
38653;SDS011;24413;52.450;20.706;2022-11-21T00:32:52;137.70;;;66.15;;
38653;SDS011;24413;52.450;20.706;2022-11-21T00:35:17;133.18;;;63.22;;
38653;SDS011;24413;52.450;20.706;2022-11-21T00:37:43;136.57;;;63.60;;
38653;SDS011;24413;52.450;20.706;2022-11-21T00:40:08;141.38;;;62.58;;
38653;SDS011;24413;52.450;20.706;2022-11-21T00:42:33;137.90;;;63.38;;
38653;SDS011;24413;52.450;20.706;2022-11-21T00:44:59;141.00;;;63.53;;
38653;SDS011;24413;52.450;20.706;2022-11-21T00:47:24;127.75;;;65.28;;
38653;SDS011;24413;52.450;20.706;2022-11-21T00:49:49;122.55;;;61.83;;
38653;SDS011;24413;52.450;20.706;2022-11-21T00:52:15;117.40;;;59.40;;
38653;SDS011;24413;52.450;20.706;2022-11-21T00:54:40;118.63;;;57.00;;
38653;SDS011;24413;52.450;20.706;2022-11-21T00:57:05;122.87;;;58.57;;
38653;SDS011;24413;52.450;20.706;2022-11-21T00:59:31;117.18;;;58.55;;
38653;SDS011;24413;52.450;20.706;2022-11-21T01:01:56;141.17;;;63.33;;
38653;SDS011;24413;52.450;20.706;2022-11-21T01:04:21;126.82;;;63.13;;
38653;SDS011;24413;52.450;20.706;2022-11-21T01:06:46;137.68;;;67.30;;
38653;SDS011;24413;52.450;20.706;2022-11-21T01:09:12;154.80;;;69.80;;
38653;SDS011;24413;52.450;20.706;2022-11-21T01:11:37;157.48;;;71.40;;
38653;SDS011;24413;52.450;20.706;2022-11-21T01:14:02;149.30;;;71.03;;
38653;SDS011;24413;52.450;20.706;2022-11-21T01:16:27;150.25;;;71.10;;
38653;SDS011;24413;52.450;20.706;2022-11-21T01:18:53;134.15;;;66.75;;
38653;SDS011;24413;52.450;20.706;2022-11-21T01:21:25;130.75;;;62.38;;
38653;SDS011;24413;52.450;20.706;2022-11-21T01:23:51;135.73;;;61.75;;
38653;SDS011;24413;52.450;20.706;2022-11-21T01:26:23;123.05;;;63.35;;
38653;SDS011;24413;52.450;20.706;2022-11-21T01:28:48;131.70;;;64.18;;
38653;SDS011;24413;52.450;20.706;2022-11-21T01:31:14;126.80;;;62.78;;
38653;SDS011;24413;52.450;20.706;2022-11-21T01:33:40;126.43;;;58.35;;
38653;SDS011;24413;52.450;20.706;2022-11-21T01:36:09;127.72;;;63.15;;
38653;SDS011;24413;52.450;20.706;2022-11-21T01:38:35;135.43;;;63.17;;
38653;SDS011;24413;52.450;20.706;2022-11-21T01:41:00;126.95;;;61.10;;
38653;SDS011;24413;52.450;20.706;2022-11-21T01:43:26;129.35;;;61.85;;
38653;SDS011;24413;52.450;20.706;2022-11-21T01:45:52;123.70;;;58.40;;
38653;SDS011;24413;52.450;20.706;2022-11-21T01:51:08;117.95;;;58.90;;
38653;SDS011;24413;52.450;20.706;2022-11-21T01:53:34;129.60;;;60.67;;
38653;SDS011;24413;52.450;20.706;2022-11-21T01:56:00;131.38;;;62.70;;
38653;SDS011;24413;52.450;20.706;2022-11-21T01:58:25;141.63;;;66.18;;
38653;SDS011;24413;52.450;20.706;2022-11-21T02:00:52;120.78;;;60.35;;
38653;SDS011;24413;52.450;20.706;2022-11-21T02:03:17;128.45;;;59.33;;
38653;SDS011;24413;52.450;20.706;2022-11-21T02:05:44;127.80;;;62.42;;
38653;SDS011;24413;52.450;20.706;2022-11-21T02:08:12;139.55;;;68.40;;
38653;SDS011;24413;52.450;20.706;2022-11-21T02:10:37;144.55;;;70.85;;
38653;SDS011;24413;52.450;20.706;2022-11-21T02:13:05;149.38;;;70.13;;
38653;SDS011;24413;52.450;20.706;2022-11-21T02:15:30;153.90;;;71.40;;
38653;SDS011;24413;52.450;20.706;2022-11-21T02:17:55;145.67;;;69.83;;
38653;SDS011;24413;52.450;20.706;2022-11-21T02:20:25;137.30;;;67.10;;
38653;SDS011;24413;52.450;20.706;2022-11-21T02:27:44;129.60;;;66.65;;
38653;SDS011;24413;52.450;20.706;2022-11-21T02:30:09;155.45;;;74.03;;
38653;SDS011;24413;52.450;20.706;2022-11-21T02:32:39;144.32;;;72.10;;
38653;SDS011;24413;52.450;20.706;2022-11-21T02:35:05;139.05;;;68.47;;
38653;SDS011;24413;52.450;20.706;2022-11-21T02:37:30;136.82;;;67.85;;
38653;SDS011;24413;52.450;20.706;2022-11-21T02:39:57;136.02;;;61.15;;
38653;SDS011;24413;52.450;20.706;2022-11-21T02:42:35;130.13;;;62.33;;
38653;SDS011;24413;52.450;20.706;2022-11-21T02:47:29;127.97;;;60.42;;
38653;SDS011;24413;52.450;20.706;2022-11-21T02:49:57;129.50;;;62.50;;
38653;SDS011;24413;52.450;20.706;2022-11-21T02:52:24;132.27;;;63.25;;
38653;SDS011;24413;52.450;20.706;2022-11-21T02:54:49;117.70;;;59.53;;
38653;SDS011;24413;52.450;20.706;2022-11-21T02:57:14;110.43;;;59.70;;
38653;SDS011;24413;52.450;20.706;2022-11-21T02:59:39;127.03;;;59.00;;
38653;SDS011;24413;52.450;20.706;2022-11-21T03:02:04;137.23;;;62.63;;
38653;SDS011;24413;52.450;20.706;2022-11-21T03:04:30;163.38;;;72.65;;
38653;SDS011;24413;52.450;20.706;2022-11-21T03:06:55;164.10;;;71.30;;
38653;SDS011;24413;52.450;20.706;2022-11-21T03:09:20;161.52;;;70.60;;
38653;SDS011;24413;52.450;20.706;2022-11-21T03:11:45;159.30;;;68.75;;
38653;SDS011;24413;52.450;20.706;2022-11-21T03:14:11;156.18;;;69.10;;
38653;SDS011;24413;52.450;20.706;2022-11-21T03:16:36;143.02;;;68.32;;
38653;SDS011;24413;52.450;20.706;2022-11-21T03:19:01;146.93;;;68.13;;
38653;SDS011;24413;52.450;20.706;2022-11-21T03:21:27;131.05;;;59.78;;
38653;SDS011;24413;52.450;20.706;2022-11-21T03:23:53;115.97;;;55.22;;
38653;SDS011;24413;52.450;20.706;2022-11-21T03:26:18;119.47;;;56.80;;
38653;SDS011;24413;52.450;20.706;2022-11-21T03:28:43;117.07;;;57.72;;
38653;SDS011;24413;52.450;20.706;2022-11-21T03:31:09;114.45;;;55.05;;
38653;SDS011;24413;52.450;20.706;2022-11-21T03:33:34;134.23;;;61.05;;
38653;SDS011;24413;52.450;20.706;2022-11-21T03:35:59;128.13;;;61.20;;
38653;SDS011;24413;52.450;20.706;2022-11-21T03:38:25;120.88;;;59.20;;
38653;SDS011;24413;52.450;20.706;2022-11-21T03:40:50;114.13;;;57.63;;
38653;SDS011;24413;52.450;20.706;2022-11-21T03:43:15;119.22;;;56.13;;
38653;SDS011;24413;52.450;20.706;2022-11-21T03:45:40;119.72;;;56.35;;
38653;SDS011;24413;52.450;20.706;2022-11-21T03:48:05;115.45;;;56.35;;
38653;SDS011;24413;52.450;20.706;2022-11-21T03:50:31;138.23;;;64.13;;
38653;SDS011;24413;52.450;20.706;2022-11-21T03:52:56;153.77;;;77.43;;
38653;SDS011;24413;52.450;20.706;2022-11-21T03:55:21;141.80;;;70.57;;
38653;SDS011;24413;52.450;20.706;2022-11-21T03:57:46;136.05;;;64.45;;
38653;SDS011;24413;52.450;20.706;2022-11-21T04:00:12;139.73;;;63.20;;
38653;SDS011;24413;52.450;20.706;2022-11-21T04:02:37;148.25;;;66.10;;
38653;SDS011;24413;52.450;20.706;2022-11-21T04:05:02;180.98;;;72.03;;
38653;SDS011;24413;52.450;20.706;2022-11-21T04:07:28;151.13;;;63.50;;
38653;SDS011;24413;52.450;20.706;2022-11-21T04:09:53;129.95;;;58.95;;
38653;SDS011;24413;52.450;20.706;2022-11-21T04:12:19;131.43;;;59.42;;
38653;SDS011;24413;52.450;20.706;2022-11-21T04:14:44;136.23;;;63.28;;
38653;SDS011;24413;52.450;20.706;2022-11-21T04:17:09;129.33;;;56.50;;
38653;SDS011;24413;52.450;20.706;2022-11-21T04:19:34;151.77;;;66.50;;
38653;SDS011;24413;52.450;20.706;2022-11-21T04:22:00;148.57;;;71.38;;
38653;SDS011;24413;52.450;20.706;2022-11-21T04:24:25;139.17;;;68.20;;
38653;SDS011;24413;52.450;20.706;2022-11-21T04:26:50;136.93;;;66.30;;
38653;SDS011;24413;52.450;20.706;2022-11-21T04:29:15;135.10;;;65.43;;
38653;SDS011;24413;52.450;20.706;2022-11-21T04:31:40;121.35;;;61.25;;
38653;SDS011;24413;52.450;20.706;2022-11-21T04:34:05;121.63;;;59.00;;
38653;SDS011;24413;52.450;20.706;2022-11-21T04:36:31;128.52;;;60.35;;
38653;SDS011;24413;52.450;20.706;2022-11-21T04:38:56;121.95;;;59.58;;
38653;SDS011;24413;52.450;20.706;2022-11-21T04:41:21;133.32;;;62.42;;
38653;SDS011;24413;52.450;20.706;2022-11-21T04:43:46;128.27;;;66.57;;
38653;SDS011;24413;52.450;20.706;2022-11-21T04:46:11;137.33;;;63.23;;
38653;SDS011;24413;52.450;20.706;2022-11-21T04:48:37;117.35;;;58.55;;
38653;SDS011;24413;52.450;20.706;2022-11-21T04:51:02;117.97;;;57.33;;
38653;SDS011;24413;52.450;20.706;2022-11-21T04:53:27;124.63;;;58.65;;
38653;SDS011;24413;52.450;20.706;2022-11-21T04:55:52;129.27;;;61.22;;
38653;SDS011;24413;52.450;20.706;2022-11-21T04:58:18;123.32;;;58.50;;
38653;SDS011;24413;52.450;20.706;2022-11-21T05:00:43;111.95;;;58.00;;
38653;SDS011;24413;52.450;20.706;2022-11-21T05:03:08;110.68;;;54.78;;
38653;SDS011;24413;52.450;20.706;2022-11-21T05:05:33;125.43;;;56.03;;
38653;SDS011;24413;52.450;20.706;2022-11-21T05:07:58;126.23;;;59.03;;
38653;SDS011;24413;52.450;20.706;2022-11-21T05:10:24;117.63;;;57.38;;
38653;SDS011;24413;52.450;20.706;2022-11-21T05:12:58;103.85;;;52.55;;
38653;SDS011;24413;52.450;20.706;2022-11-21T05:15:43;98.45;;;49.40;;
38653;SDS011;24413;52.450;20.706;2022-11-21T05:18:08;102.35;;;48.78;;
38653;SDS011;24413;52.450;20.706;2022-11-21T05:20:34;109.50;;;50.85;;
38653;SDS011;24413;52.450;20.706;2022-11-21T05:22:59;97.43;;;48.25;;
38653;SDS011;24413;52.450;20.706;2022-11-21T05:25:24;108.60;;;51.17;;
38653;SDS011;24413;52.450;20.706;2022-11-21T05:27:49;108.60;;;52.97;;
38653;SDS011;24413;52.450;20.706;2022-11-21T05:30:14;105.07;;;51.83;;
38653;SDS011;24413;52.450;20.706;2022-11-21T05:32:40;110.85;;;52.75;;
38653;SDS011;24413;52.450;20.706;2022-11-21T05:35:07;116.47;;;55.38;;
38653;SDS011;24413;52.450;20.706;2022-11-21T05:37:32;108.50;;;55.17;;
38653;SDS011;24413;52.450;20.706;2022-11-21T05:39:57;118.53;;;52.83;;
38653;SDS011;24413;52.450;20.706;2022-11-21T05:42:23;118.95;;;54.53;;
38653;SDS011;24413;52.450;20.706;2022-11-21T05:45:08;115.15;;;52.17;;
38653;SDS011;24413;52.450;20.706;2022-11-21T05:47:33;115.18;;;56.30;;
38653;SDS011;24413;52.450;20.706;2022-11-21T05:49:58;128.55;;;60.67;;
38653;SDS011;24413;52.450;20.706;2022-11-21T05:52:23;123.32;;;57.90;;
38653;SDS011;24413;52.450;20.706;2022-11-21T05:54:49;117.80;;;56.20;;
38653;SDS011;24413;52.450;20.706;2022-11-21T05:57:14;124.57;;;58.43;;
38653;SDS011;24413;52.450;20.706;2022-11-21T05:59:39;123.90;;;56.10;;
38653;SDS011;24413;52.450;20.706;2022-11-21T06:02:04;131.03;;;58.87;;
38653;SDS011;24413;52.450;20.706;2022-11-21T06:04:48;102.47;;;47.13;;
38653;SDS011;24413;52.450;20.706;2022-11-21T06:07:13;114.57;;;55.27;;
38653;SDS011;24413;52.450;20.706;2022-11-21T06:09:39;131.57;;;54.70;;
38653;SDS011;24413;52.450;20.706;2022-11-21T06:12:04;115.90;;;55.53;;
38653;SDS011;24413;52.450;20.706;2022-11-21T06:14:29;135.93;;;60.13;;
38653;SDS011;24413;52.450;20.706;2022-11-21T06:16:54;125.57;;;60.07;;
38653;SDS011;24413;52.450;20.706;2022-11-21T06:19:19;129.57;;;57.40;;
38653;SDS011;24413;52.450;20.706;2022-11-21T06:21:45;139.48;;;57.88;;
38653;SDS011;24413;52.450;20.706;2022-11-21T06:24:10;118.78;;;55.80;;
38653;SDS011;24413;52.450;20.706;2022-11-21T06:26:36;123.75;;;57.97;;
38653;SDS011;24413;52.450;20.706;2022-11-21T06:29:01;141.07;;;64.88;;
38653;SDS011;24413;52.450;20.706;2022-11-21T06:31:26;139.98;;;60.92;;
38653;SDS011;24413;52.450;20.706;2022-11-21T06:33:52;138.82;;;62.15;;
38653;SDS011;24413;52.450;20.706;2022-11-21T06:36:18;122.03;;;59.28;;
38653;SDS011;24413;52.450;20.706;2022-11-21T06:38:43;131.32;;;58.92;;
38653;SDS011;24413;52.450;20.706;2022-11-21T06:41:13;149.63;;;64.95;;
38653;SDS011;24413;52.450;20.706;2022-11-21T06:43:38;139.77;;;63.05;;
38653;SDS011;24413;52.450;20.706;2022-11-21T06:46:04;129.45;;;61.55;;
38653;SDS011;24413;52.450;20.706;2022-11-21T06:48:29;152.95;;;61.88;;
38653;SDS011;24413;52.450;20.706;2022-11-21T06:50:55;134.05;;;60.72;;
38653;SDS011;24413;52.450;20.706;2022-11-21T06:53:20;127.63;;;61.08;;
38653;SDS011;24413;52.450;20.706;2022-11-21T06:55:45;156.48;;;69.15;;
38653;SDS011;24413;52.450;20.706;2022-11-21T06:58:10;147.67;;;72.73;;
38653;SDS011;24413;52.450;20.706;2022-11-21T07:00:36;150.57;;;69.57;;
38653;SDS011;24413;52.450;20.706;2022-11-21T07:03:01;142.77;;;68.80;;
38653;SDS011;24413;52.450;20.706;2022-11-21T07:05:26;146.80;;;64.78;;
38653;SDS011;24413;52.450;20.706;2022-11-21T07:07:56;155.57;;;73.30;;
38653;SDS011;24413;52.450;20.706;2022-11-21T07:10:22;158.45;;;73.22;;
38653;SDS011;24413;52.450;20.706;2022-11-21T07:12:47;154.03;;;70.73;;
38653;SDS011;24413;52.450;20.706;2022-11-21T07:15:31;157.02;;;71.35;;
38653;SDS011;24413;52.450;20.706;2022-11-21T07:17:57;211.15;;;107.50;;
38653;SDS011;24413;52.450;20.706;2022-11-21T07:20:22;135.35;;;61.83;;
38653;SDS011;24413;52.450;20.706;2022-11-21T07:22:47;134.27;;;61.55;;
38653;SDS011;24413;52.450;20.706;2022-11-21T07:25:12;132.10;;;62.23;;
38653;SDS011;24413;52.450;20.706;2022-11-21T07:27:37;130.18;;;62.85;;
38653;SDS011;24413;52.450;20.706;2022-11-21T07:30:03;131.73;;;63.90;;
38653;SDS011;24413;52.450;20.706;2022-11-21T07:32:28;143.88;;;61.30;;
38653;SDS011;24413;52.450;20.706;2022-11-21T07:34:53;138.68;;;62.53;;
38653;SDS011;24413;52.450;20.706;2022-11-21T07:37:18;128.57;;;63.78;;
38653;SDS011;24413;52.450;20.706;2022-11-21T07:39:44;143.60;;;64.95;;
38653;SDS011;24413;52.450;20.706;2022-11-21T07:42:09;133.63;;;65.10;;
38653;SDS011;24413;52.450;20.706;2022-11-21T07:44:34;148.20;;;69.47;;
38653;SDS011;24413;52.450;20.706;2022-11-21T07:47:00;132.13;;;65.25;;
38653;SDS011;24413;52.450;20.706;2022-11-21T07:49:25;153.63;;;76.33;;
38653;SDS011;24413;52.450;20.706;2022-11-21T07:51:50;127.20;;;65.55;;
38653;SDS011;24413;52.450;20.706;2022-11-21T07:54:15;130.93;;;64.35;;
38653;SDS011;24413;52.450;20.706;2022-11-21T07:56:41;144.70;;;66.22;;
38653;SDS011;24413;52.450;20.706;2022-11-21T07:59:06;135.50;;;66.15;;
38653;SDS011;24413;52.450;20.706;2022-11-21T08:01:31;122.75;;;62.80;;
38653;SDS011;24413;52.450;20.706;2022-11-21T08:03:56;134.37;;;65.03;;
38653;SDS011;24413;52.450;20.706;2022-11-21T08:06:22;132.38;;;66.82;;
38653;SDS011;24413;52.450;20.706;2022-11-21T08:08:50;131.83;;;65.57;;
38653;SDS011;24413;52.450;20.706;2022-11-21T08:11:16;142.02;;;66.10;;
38653;SDS011;24413;52.450;20.706;2022-11-21T08:13:41;143.18;;;71.32;;
38653;SDS011;24413;52.450;20.706;2022-11-21T08:16:06;145.07;;;75.57;;
38653;SDS011;24413;52.450;20.706;2022-11-21T08:18:32;140.05;;;62.92;;
38653;SDS011;24413;52.450;20.706;2022-11-21T08:20:59;134.98;;;67.32;;
38653;SDS011;24413;52.450;20.706;2022-11-21T08:23:24;154.48;;;74.15;;
38653;SDS011;24413;52.450;20.706;2022-11-21T08:25:49;158.43;;;73.43;;
38653;SDS011;24413;52.450;20.706;2022-11-21T08:28:15;154.00;;;76.43;;
38653;SDS011;24413;52.450;20.706;2022-11-21T08:30:41;142.03;;;74.37;;
38653;SDS011;24413;52.450;20.706;2022-11-21T08:33:06;148.13;;;68.47;;
38653;SDS011;24413;52.450;20.706;2022-11-21T08:35:31;142.20;;;71.60;;
38653;SDS011;24413;52.450;20.706;2022-11-21T08:38:00;135.30;;;65.80;;
38653;SDS011;24413;52.450;20.706;2022-11-21T08:40:26;151.77;;;71.80;;
38653;SDS011;24413;52.450;20.706;2022-11-21T08:42:58;150.55;;;73.93;;
38653;SDS011;24413;52.450;20.706;2022-11-21T08:45:24;144.50;;;72.22;;
38653;SDS011;24413;52.450;20.706;2022-11-21T08:47:51;141.45;;;67.20;;
38653;SDS011;24413;52.450;20.706;2022-11-21T08:50:16;142.82;;;69.68;;
38653;SDS011;24413;52.450;20.706;2022-11-21T08:52:41;144.48;;;70.68;;
38653;SDS011;24413;52.450;20.706;2022-11-21T08:55:07;140.77;;;69.90;;
38653;SDS011;24413;52.450;20.706;2022-11-21T08:57:36;141.43;;;66.85;;
38653;SDS011;24413;52.450;20.706;2022-11-21T09:00:01;137.10;;;63.90;;
38653;SDS011;24413;52.450;20.706;2022-11-21T09:02:26;125.15;;;65.15;;
38653;SDS011;24413;52.450;20.706;2022-11-21T09:04:52;125.18;;;63.08;;
38653;SDS011;24413;52.450;20.706;2022-11-21T09:07:17;129.15;;;63.00;;
38653;SDS011;24413;52.450;20.706;2022-11-21T09:09:42;124.03;;;61.87;;
38653;SDS011;24413;52.450;20.706;2022-11-21T09:12:07;120.40;;;61.20;;
38653;SDS011;24413;52.450;20.706;2022-11-21T09:14:33;126.63;;;63.42;;
38653;SDS011;24413;52.450;20.706;2022-11-21T09:17:16;134.02;;;63.28;;
38653;SDS011;24413;52.450;20.706;2022-11-21T09:20:00;129.55;;;63.05;;
38653;SDS011;24413;52.450;20.706;2022-11-21T09:22:25;133.97;;;67.23;;
38653;SDS011;24413;52.450;20.706;2022-11-21T09:24:51;123.22;;;65.72;;
38653;SDS011;24413;52.450;20.706;2022-11-21T09:27:16;126.57;;;65.82;;
38653;SDS011;24413;52.450;20.706;2022-11-21T09:29:41;124.95;;;65.97;;
38653;SDS011;24413;52.450;20.706;2022-11-21T09:32:06;135.87;;;66.20;;
38653;SDS011;24413;52.450;20.706;2022-11-21T09:34:31;143.93;;;68.37;;
38653;SDS011;24413;52.450;20.706;2022-11-21T09:36:57;128.02;;;60.97;;
38653;SDS011;24413;52.450;20.706;2022-11-21T09:39:22;115.30;;;58.33;;
38653;SDS011;24413;52.450;20.706;2022-11-21T09:44:37;98.18;;;51.55;;
38653;SDS011;24413;52.450;20.706;2022-11-21T09:47:08;104.90;;;55.08;;
38653;SDS011;24413;52.450;20.706;2022-11-21T09:49:37;107.57;;;53.20;;
38653;SDS011;24413;52.450;20.706;2022-11-21T09:52:05;112.72;;;54.85;;
38653;SDS011;24413;52.450;20.706;2022-11-21T09:54:30;103.68;;;52.92;;
38653;SDS011;24413;52.450;20.706;2022-11-21T09:56:58;105.32;;;56.65;;
38653;SDS011;24413;52.450;20.706;2022-11-21T09:59:34;110.75;;;60.20;;
38653;SDS011;24413;52.450;20.706;2022-11-21T10:02:01;113.22;;;56.45;;
38653;SDS011;24413;52.450;20.706;2022-11-21T10:04:26;107.50;;;58.25;;
38653;SDS011;24413;52.450;20.706;2022-11-21T10:07:10;122.45;;;63.83;;
38653;SDS011;24413;52.450;20.706;2022-11-21T10:12:14;133.75;;;71.40;;
38653;SDS011;24413;52.450;20.706;2022-11-21T10:20:14;106.57;;;56.47;;
38653;SDS011;24413;52.450;20.706;2022-11-21T10:25:12;104.80;;;57.92;;
38653;SDS011;24413;52.450;20.706;2022-11-21T10:27:53;123.70;;;62.28;;
38653;SDS011;24413;52.450;20.706;2022-11-21T10:30:19;107.20;;;56.42;;
38653;SDS011;24413;52.450;20.706;2022-11-21T10:32:56;112.65;;;59.22;;
38653;SDS011;24413;52.450;20.706;2022-11-21T10:35:23;102.60;;;57.15;;
38653;SDS011;24413;52.450;20.706;2022-11-21T10:37:53;119.28;;;59.17;;
38653;SDS011;24413;52.450;20.706;2022-11-21T10:41:02;107.07;;;55.67;;
38653;SDS011;24413;52.450;20.706;2022-11-21T10:46:11;100.97;;;55.65;;
38653;SDS011;24413;52.450;20.706;2022-11-21T10:48:36;101.17;;;53.13;;
38653;SDS011;24413;52.450;20.706;2022-11-21T10:53:42;101.50;;;52.58;;
38653;SDS011;24413;52.450;20.706;2022-11-21T10:56:26;107.57;;;57.03;;
38653;SDS011;24413;52.450;20.706;2022-11-21T10:58:55;102.00;;;53.25;;
38653;SDS011;24413;52.450;20.706;2022-11-21T11:06:33;99.43;;;54.08;;
38653;SDS011;24413;52.450;20.706;2022-11-21T11:08:59;111.82;;;55.85;;
38653;SDS011;24413;52.450;20.706;2022-11-21T11:11:24;104.33;;;52.33;;
38653;SDS011;24413;52.450;20.706;2022-11-21T11:16:18;95.53;;;47.53;;
38653;SDS011;24413;52.450;20.706;2022-11-21T11:19:01;87.63;;;47.20;;
38653;SDS011;24413;52.450;20.706;2022-11-21T11:21:28;90.28;;;46.10;;
38653;SDS011;24413;52.450;20.706;2022-11-21T11:24:04;88.03;;;43.55;;
38653;SDS011;24413;52.450;20.706;2022-11-21T11:26:30;80.03;;;44.72;;
38653;SDS011;24413;52.450;20.706;2022-11-21T11:31:43;65.80;;;35.95;;
38653;SDS011;24413;52.450;20.706;2022-11-21T11:34:12;75.78;;;37.63;;
38653;SDS011;24413;52.450;20.706;2022-11-21T11:56:38;68.50;;;35.65;;
38653;SDS011;24413;52.450;20.706;2022-11-21T11:59:17;71.40;;;36.20;;
38653;SDS011;24413;52.450;20.706;2022-11-21T12:04:37;72.32;;;38.30;;
38653;SDS011;24413;52.450;20.706;2022-11-21T12:07:06;68.85;;;37.88;;
38653;SDS011;24413;52.450;20.706;2022-11-21T12:09:55;67.07;;;35.85;;
38653;SDS011;24413;52.450;20.706;2022-11-21T12:12:32;80.10;;;42.45;;
38653;SDS011;24413;52.450;20.706;2022-11-21T12:20:34;68.00;;;36.33;;
38653;SDS011;24413;52.450;20.706;2022-11-21T12:23:00;64.07;;;36.28;;
38653;SDS011;24413;52.450;20.706;2022-11-21T12:25:30;63.40;;;34.83;;
38653;SDS011;24413;52.450;20.706;2022-11-21T12:27:56;65.88;;;34.75;;
38653;SDS011;24413;52.450;20.706;2022-11-21T12:40:27;66.97;;;35.08;;
38653;SDS011;24413;52.450;20.706;2022-11-21T12:45:49;64.47;;;33.83;;
38653;SDS011;24413;52.450;20.706;2022-11-21T12:48:17;66.45;;;35.47;;
38653;SDS011;24413;52.450;20.706;2022-11-21T12:51:14;74.43;;;39.08;;
38653;SDS011;24413;52.450;20.706;2022-11-21T12:59:23;70.97;;;35.83;;
38653;SDS011;24413;52.450;20.706;2022-11-21T13:01:55;79.35;;;37.58;;
38653;SDS011;24413;52.450;20.706;2022-11-21T13:04:27;63.08;;;36.58;;
38653;SDS011;24413;52.450;20.706;2022-11-21T13:06:54;76.82;;;40.58;;
38653;SDS011;24413;52.450;20.706;2022-11-21T13:09:20;77.32;;;39.90;;
38653;SDS011;24413;52.450;20.706;2022-11-21T13:17:19;76.55;;;39.83;;
38653;SDS011;24413;52.450;20.706;2022-11-21T13:19:43;76.05;;;38.83;;
38653;SDS011;24413;52.450;20.706;2022-11-21T13:24:55;77.53;;;42.97;;
38653;SDS011;24413;52.450;20.706;2022-11-21T13:32:37;76.22;;;40.22;;
38653;SDS011;24413;52.450;20.706;2022-11-21T13:35:30;82.03;;;44.25;;
38653;SDS011;24413;52.450;20.706;2022-11-21T13:48:09;147.55;;;66.03;;
38653;SDS011;24413;52.450;20.706;2022-11-21T13:50:47;177.68;;;77.97;;
38653;SDS011;24413;52.450;20.706;2022-11-21T13:55:49;114.35;;;53.22;;
38653;SDS011;24413;52.450;20.706;2022-11-21T14:08:40;169.73;;;71.65;;
38653;SDS011;24413;52.450;20.706;2022-11-21T14:11:18;181.13;;;78.57;;
38653;SDS011;24413;52.450;20.706;2022-11-21T14:13:44;181.25;;;77.88;;
38653;SDS011;24413;52.450;20.706;2022-11-21T14:18:46;200.10;;;89.10;;
38653;SDS011;24413;52.450;20.706;2022-11-21T14:24:16;154.10;;;73.43;;
38653;SDS011;24413;52.450;20.706;2022-11-21T14:26:45;223.00;;;107.88;;
38653;SDS011;24413;52.450;20.706;2022-11-21T14:29:19;209.68;;;105.20;;
38653;SDS011;24413;52.450;20.706;2022-11-21T14:31:47;170.77;;;86.00;;
38653;SDS011;24413;52.450;20.706;2022-11-21T14:36:38;152.48;;;77.10;;
38653;SDS011;24413;52.450;20.706;2022-11-21T14:39:05;117.57;;;69.10;;
38653;SDS011;24413;52.450;20.706;2022-11-21T14:41:31;107.07;;;56.40;;
38653;SDS011;24413;52.450;20.706;2022-11-21T14:46:26;102.88;;;56.03;;
38653;SDS011;24413;52.450;20.706;2022-11-21T14:48:51;101.50;;;54.60;;
38653;SDS011;24413;52.450;20.706;2022-11-21T14:51:18;100.30;;;56.60;;
38653;SDS011;24413;52.450;20.706;2022-11-21T14:53:44;94.60;;;51.55;;
38653;SDS011;24413;52.450;20.706;2022-11-21T14:56:11;94.07;;;50.97;;
38653;SDS011;24413;52.450;20.706;2022-11-21T14:58:37;95.72;;;55.67;;
38653;SDS011;24413;52.450;20.706;2022-11-21T15:01:05;91.15;;;51.08;;
38653;SDS011;24413;52.450;20.706;2022-11-21T15:03:31;100.72;;;55.13;;
38653;SDS011;24413;52.450;20.706;2022-11-21T15:06:03;90.38;;;47.95;;
38653;SDS011;24413;52.450;20.706;2022-11-21T15:08:29;84.97;;;46.15;;
38653;SDS011;24413;52.450;20.706;2022-11-21T15:10:55;84.25;;;44.67;;
38653;SDS011;24413;52.450;20.706;2022-11-21T15:13:21;83.85;;;44.55;;
38653;SDS011;24413;52.450;20.706;2022-11-21T15:15:50;86.82;;;44.20;;
38653;SDS011;24413;52.450;20.706;2022-11-21T15:18:21;93.57;;;46.85;;
38653;SDS011;24413;52.450;20.706;2022-11-21T15:20:47;98.20;;;48.53;;
38653;SDS011;24413;52.450;20.706;2022-11-21T15:25:53;96.38;;;48.47;;
38653;SDS011;24413;52.450;20.706;2022-11-21T15:28:20;82.03;;;43.83;;
38653;SDS011;24413;52.450;20.706;2022-11-21T15:30:45;81.43;;;44.28;;
38653;SDS011;24413;52.450;20.706;2022-11-21T15:33:12;74.07;;;42.63;;
38653;SDS011;24413;52.450;20.706;2022-11-21T15:38:14;89.22;;;43.63;;
38653;SDS011;24413;52.450;20.706;2022-11-21T15:40:53;92.50;;;46.28;;
38653;SDS011;24413;52.450;20.706;2022-11-21T15:46:03;125.82;;;57.70;;
38653;SDS011;24413;52.450;20.706;2022-11-21T15:48:28;115.43;;;53.10;;
38653;SDS011;24413;52.450;20.706;2022-11-21T15:50:54;103.47;;;50.65;;
38653;SDS011;24413;52.450;20.706;2022-11-21T15:53:20;100.40;;;50.88;;
38653;SDS011;24413;52.450;20.706;2022-11-21T15:55:45;104.93;;;53.90;;
38653;SDS011;24413;52.450;20.706;2022-11-21T15:58:10;116.03;;;57.35;;
38653;SDS011;24413;52.450;20.706;2022-11-21T16:00:35;115.67;;;56.90;;
38653;SDS011;24413;52.450;20.706;2022-11-21T16:03:01;105.90;;;53.45;;
38653;SDS011;24413;52.450;20.706;2022-11-21T16:05:26;96.53;;;47.97;;
38653;SDS011;24413;52.450;20.706;2022-11-21T16:07:51;84.50;;;46.50;;
38653;SDS011;24413;52.450;20.706;2022-11-21T16:10:16;96.03;;;47.10;;
38653;SDS011;24413;52.450;20.706;2022-11-21T16:12:42;85.38;;;46.40;;
38653;SDS011;24413;52.450;20.706;2022-11-21T16:15:07;92.75;;;46.58;;
38653;SDS011;24413;52.450;20.706;2022-11-21T16:17:32;88.28;;;46.30;;
38653;SDS011;24413;52.450;20.706;2022-11-21T16:19:58;97.43;;;50.25;;